Nikolo-Poloma, Russia
Current Conditions -  °F | °C
As of 12:30 PM on Friday 24 Oct 2014 (Local Time) from UUDL Reporting Station
Clear Clear  
Wind Chill:   Ceiling: Unl
Heat Index: 18°   Visibility: 6mi
Dew Point:   Wind: 9mph
Humidity: 63%   Direction: 310°NW
Pressure: 30.56"   Gusts: NA
Location:  58.33°N, 43.4°E
Report Text: UUDL 240930Z 31004MPS CAVOK M08/M14 Q1035 NOSIG RMK QFE76823850347
Loading
Personal Weather Stations






























Interactive Weather Map
Tropical Storm Tracking
New forecast layout! Learn more

10-Day Weather Forecast

Advertisements
Track Severe Weather on mobile